createdAt,value
2018-07-02T00:00:22.811Z,5.36
2018-07-02T00:01:22.799Z,5.32
2018-07-02T00:02:25.054Z,5.34
2018-07-02T00:03:22.852Z,5.37
2018-07-02T00:04:22.726Z,5.3
2018-07-02T00:05:22.774Z,5.35
2018-07-02T00:06:25.520Z,5.41
2018-07-02T00:07:22.749Z,5.39
2018-07-02T00:08:22.753Z,5.42
2018-07-02T00:09:22.844Z,5.42
2018-07-02T00:10:25.889Z,5.38
2018-07-02T00:11:22.769Z,5.39
2018-07-02T00:12:22.830Z,5.39
2018-07-02T00:13:22.818Z,5.41
2018-07-02T00:14:22.853Z,5.37
2018-07-02T00:15:22.757Z,5.42
2018-07-02T00:16:22.793Z,5.41
2018-07-02T00:17:22.816Z,5.44
2018-07-02T00:18:22.763Z,5.41
2018-07-02T00:19:25.586Z,5.41
2018-07-02T00:20:22.778Z,5.39
2018-07-02T00:21:22.757Z,5.43
2018-07-02T00:22:22.764Z,5.44
2018-07-02T00:23:25.107Z,5.39
2018-07-02T00:24:22.755Z,5.35
2018-07-02T00:25:22.921Z,5.35
2018-07-02T00:26:22.912Z,5.38
2018-07-02T00:27:25.230Z,5.42
2018-07-02T00:28:22.809Z,5.38
2018-07-02T00:29:22.827Z,5.35
2018-07-02T00:30:22.962Z,5.39
2018-07-02T00:31:25.467Z,5.38
2018-07-02T00:32:23.381Z,5.33
2018-07-02T00:33:22.820Z,5.34
2018-07-02T00:34:22.794Z,5.32
2018-07-02T00:35:24.263Z,5.41
2018-07-02T00:36:22.856Z,5.33
2018-07-02T00:37:22.815Z,5.32
2018-07-02T00:38:24.694Z,5.33
2018-07-02T00:39:22.862Z,5.33
2018-07-02T00:40:25.125Z,5.36
2018-07-02T00:41:22.771Z,5.36
2018-07-02T00:42:22.850Z,5.39
2018-07-02T00:43:22.852Z,5.35
2018-07-02T00:44:22.796Z,5.36
2018-07-02T00:45:23.352Z,5.44
2018-07-02T00:46:22.797Z,5.38
2018-07-02T00:47:23.054Z,5.32
2018-07-02T00:48:22.805Z,5.34
2018-07-02T00:49:23.024Z,5.31
2018-07-02T00:50:22.844Z,5.37
2018-07-02T00:51:22.799Z,5.32
2018-07-02T00:52:22.814Z,5.28
2018-07-02T00:53:25.603Z,5.33
2018-07-02T00:54:23.414Z,5.31
2018-07-02T00:55:22.842Z,5.31
2018-07-02T00:56:23.620Z,5.3
2018-07-02T00:57:26.566Z,5.28
2018-07-02T00:58:23.772Z,5.29
2018-07-02T00:59:22.806Z,5.34
2018-07-02T01:00:25.846Z,5.34
2018-07-02T01:01:23.123Z,5.29
2018-07-02T01:02:22.800Z,5.33
2018-07-02T01:03:22.975Z,5.29
2018-07-02T01:04:22.980Z,5.29
2018-07-02T01:05:22.911Z,5.24
2018-07-02T01:06:23.829Z,5.29
2018-07-02T01:07:24.905Z,5.34
2018-07-02T01:08:24.224Z,5.27
2018-07-02T01:09:22.832Z,5.36
2018-07-02T01:10:24.359Z,5.29
2018-07-02T01:11:23.708Z,5.31
2018-07-02T01:12:22.835Z,5.37
2018-07-02T01:13:22.820Z,5.37
2018-07-02T01:14:22.855Z,5.29
2018-07-02T01:15:26.030Z,5.32
2018-07-02T01:16:22.825Z,5.23
2018-07-02T01:17:22.820Z,5.29
2018-07-02T01:18:22.923Z,5.29
2018-07-02T01:19:22.901Z,5.33
2018-07-02T01:20:22.801Z,5.28
2018-07-02T01:21:22.933Z,5.3
2018-07-02T01:22:22.819Z,5.34
2018-07-02T01:23:24.647Z,5.31
2018-07-02T01:24:24.397Z,5.36
2018-07-02T01:25:22.950Z,5.32
2018-07-02T01:26:24.926Z,5.27
2018-07-02T01:27:22.862Z,5.29
2018-07-02T01:28:22.866Z,5.26
2018-07-02T01:29:24.180Z,5.29
2018-07-02T01:30:22.856Z,5.28
2018-07-02T01:31:22.815Z,5.27
2018-07-02T01:32:24.657Z,5.31
2018-07-02T01:33:26.205Z,5.24
2018-07-02T01:34:24.978Z,5.3
2018-07-02T01:35:22.843Z,5.31
2018-07-02T01:36:25.404Z,5.28
2018-07-02T01:37:26.640Z,5.27
2018-07-02T01:38:22.869Z,5.27
2018-07-02T01:39:25.218Z,5.25
2018-07-02T01:40:22.832Z,5.29
2018-07-02T01:41:22.848Z,5.29
2018-07-02T01:42:22.806Z,5.22
2018-07-02T01:43:22.885Z,5.25
2018-07-02T01:44:23.184Z,5.23
2018-07-02T01:45:25.361Z,5.3
2018-07-02T01:46:22.874Z,5.15
2018-07-02T01:47:22.856Z,5.25
2018-07-02T01:48:24.257Z,5.23
2018-07-02T01:49:22.886Z,5.18
2018-07-02T01:50:22.826Z,5.21
2018-07-02T01:51:25.303Z,5.21
2018-07-02T01:52:22.909Z,5.12
2018-07-02T01:53:22.907Z,5.23
2018-07-02T01:54:23.078Z,5.24
2018-07-02T01:55:22.841Z,5.16
2018-07-02T01:56:22.845Z,5.19
2018-07-02T01:57:22.833Z,5.24
2018-07-02T01:58:25.351Z,5.22
2018-07-02T01:59:22.969Z,5.19
2018-07-02T02:00:22.848Z,5.06
2018-07-02T02:01:22.864Z,5.19
2018-07-02T02:02:24.763Z,5.17
2018-07-02T02:03:22.836Z,5.2
2018-07-02T02:04:22.844Z,5.23
2018-07-02T02:05:22.840Z,5.18
2018-07-02T02:06:23.874Z,5.2
2018-07-02T02:07:22.855Z,5.2
2018-07-02T02:08:22.813Z,5.19
2018-07-02T02:09:22.811Z,5.19
2018-07-02T02:10:22.834Z,5.21
2018-07-02T02:11:22.869Z,5.21
2018-07-02T02:12:22.852Z,5.14
2018-07-02T02:13:22.924Z,5.13
2018-07-02T02:14:22.845Z,5.13
2018-07-02T02:15:22.912Z,5.03
2018-07-02T02:16:22.816Z,5.13
2018-07-02T02:17:22.811Z,5.14
2018-07-02T02:18:22.881Z,5.12
2018-07-02T02:19:22.850Z,5.16
2018-07-02T02:20:22.850Z,5.13
2018-07-02T02:21:22.964Z,5.02
2018-07-02T02:22:22.959Z,5.15
2018-07-02T02:23:25.213Z,5.14
2018-07-02T02:24:22.972Z,5.12
2018-07-02T02:25:22.836Z,5.11
2018-07-02T02:26:22.839Z,5.09
2018-07-02T02:27:24.424Z,5.1
2018-07-02T02:28:22.850Z,5.14
2018-07-02T02:29:22.858Z,5.15
2018-07-02T02:30:22.861Z,5.12
2018-07-02T02:31:25.064Z,5.03
2018-07-02T02:32:22.976Z,5.11
2018-07-02T02:33:22.833Z,5.08
2018-07-02T02:34:22.909Z,5.11
2018-07-02T02:35:24.108Z,5.14
2018-07-02T02:36:22.885Z,5.1
2018-07-02T02:37:22.961Z,5.05
2018-07-02T02:38:23.520Z,5.05
2018-07-02T02:39:23.233Z,5.15
2018-07-02T02:40:22.991Z,5.14
2018-07-02T02:41:22.923Z,5.11
2018-07-02T02:42:22.892Z,5.11
2018-07-02T02:43:23.061Z,5.06
2018-07-02T02:44:22.845Z,5.11
2018-07-02T02:45:22.924Z,5.14
2018-07-02T02:46:22.919Z,5.11
2018-07-02T02:47:22.897Z,5.07
2018-07-02T02:48:22.841Z,5.1
2018-07-02T02:49:22.882Z,5.17
2018-07-02T02:50:22.874Z,5.1
2018-07-02T02:51:22.906Z,5.16
2018-07-02T02:52:22.859Z,5.1
2018-07-02T02:53:22.868Z,5.1
2018-07-02T02:54:22.888Z,5.13
2018-07-02T02:55:22.922Z,5.14
2018-07-02T02:56:22.878Z,5.11
2018-07-02T02:57:22.884Z,5.12
2018-07-02T02:58:22.861Z,5.11
2018-07-02T02:59:22.937Z,5.14
2018-07-02T03:00:25.167Z,5.08
2018-07-02T03:01:22.958Z,5.1
2018-07-02T03:02:22.880Z,5.13
2018-07-02T03:03:22.869Z,5.13
2018-07-02T03:04:25.088Z,5.15
2018-07-02T03:05:22.912Z,5.16
2018-07-02T03:06:22.904Z,5.14
2018-07-02T03:07:22.872Z,5.11
2018-07-02T03:08:22.942Z,5.14
2018-07-02T03:09:22.970Z,5.14
2018-07-02T03:10:22.937Z,5.11
2018-07-02T03:11:23.196Z,5.08
2018-07-02T03:12:22.900Z,5.12
2018-07-02T03:13:25.048Z,5.01
2018-07-02T03:14:22.954Z,5.04
2018-07-02T03:15:22.964Z,5.16
2018-07-02T03:16:22.961Z,5.14
2018-07-02T03:17:25.179Z,5.1
2018-07-02T03:18:23.053Z,5.15
2018-07-02T03:19:22.887Z,5.14
2018-07-02T03:20:23.411Z,5.17
2018-07-02T03:21:24.284Z,5.14
2018-07-02T03:22:22.935Z,5.15
2018-07-02T03:23:23.191Z,5.14
2018-07-02T03:24:22.949Z,5.18
2018-07-02T03:25:24.151Z,5.13
2018-07-02T03:26:22.909Z,5.11
2018-07-02T03:27:22.996Z,5.13
2018-07-02T03:28:23.029Z,5.13
2018-07-02T03:29:24.547Z,5.12
2018-07-02T03:30:23.020Z,5.18
2018-07-02T03:31:23.098Z,5.17
2018-07-02T03:32:23.112Z,5.12
2018-07-02T03:33:23.820Z,5.13
2018-07-02T03:34:22.891Z,5.13
2018-07-02T03:35:22.949Z,5.15
2018-07-02T03:36:22.956Z,5.12
2018-07-02T03:37:25.012Z,5.11
2018-07-02T03:38:22.934Z,5.11
2018-07-02T03:39:22.986Z,5.08
2018-07-02T03:40:22.984Z,5.12
2018-07-02T03:41:25.248Z,5.2
2018-07-02T03:42:22.896Z,5.12
2018-07-02T03:43:22.948Z,5.1
2018-07-02T03:44:26.970Z,5.19
2018-07-02T03:45:25.067Z,5.17
2018-07-02T03:46:22.938Z,5.18
2018-07-02T03:47:23.127Z,5.12
2018-07-02T03:48:22.951Z,5.15
2018-07-02T03:49:24.893Z,5.21
2018-07-02T03:50:22.964Z,5.15
2018-07-02T03:51:22.949Z,5.15
2018-07-02T03:52:23.183Z,5.11
2018-07-02T03:53:25.024Z,5.12
2018-07-02T03:54:22.982Z,5.14
2018-07-02T03:55:23.038Z,5.13
2018-07-02T03:56:22.982Z,5.16
2018-07-02T03:57:24.741Z,5.13
2018-07-02T03:58:23.034Z,5.12
2018-07-02T03:59:22.991Z,5.15
2018-07-02T04:00:22.950Z,5.15
2018-07-02T04:01:25.444Z,5.11
2018-07-02T04:02:22.939Z,5.17
2018-07-02T04:03:22.976Z,5.17
2018-07-02T04:04:22.970Z,5.16
2018-07-02T04:05:25.412Z,5.2
2018-07-02T04:06:22.964Z,5.13
2018-07-02T04:07:22.968Z,5.14
2018-07-02T04:08:22.966Z,5.16
2018-07-02T04:09:25.132Z,5.21
2018-07-02T04:10:22.926Z,5.12
2018-07-02T04:11:22.995Z,5.19
2018-07-02T04:12:22.965Z,5.15
2018-07-02T04:13:25.470Z,5.15
2018-07-02T04:14:22.988Z,5.16
2018-07-02T04:15:23.034Z,5.19
2018-07-02T04:16:25.284Z,5.18
2018-07-02T04:17:23.009Z,5.15
2018-07-02T04:18:25.504Z,5.12
2018-07-02T04:19:25.613Z,5.18
2018-07-02T04:20:24.970Z,5.18
2018-07-02T04:21:25.010Z,5.21
2018-07-02T04:22:23.143Z,5.18
2018-07-02T04:23:25.333Z,5.22
2018-07-02T04:24:22.987Z,5.19
2018-07-02T04:25:25.246Z,5.21
2018-07-02T04:26:23.039Z,5.14
2018-07-02T04:27:23.084Z,5.21
2018-07-02T04:28:24.860Z,5.19
2018-07-02T04:29:23.010Z,5.15
2018-07-02T04:30:23.117Z,5.24
2018-07-02T04:31:23.035Z,5.24
2018-07-02T04:32:23.113Z,5.25
2018-07-02T04:33:23.081Z,5.25
2018-07-02T04:34:23.134Z,5.27
2018-07-02T04:35:23.050Z,5.26
2018-07-02T04:36:23.113Z,5.25
2018-07-02T04:37:23.055Z,5.24
2018-07-02T04:38:23.196Z,5.29
2018-07-02T04:39:23.148Z,5.22
2018-07-02T04:40:28.185Z,5.25
2018-07-02T04:41:25.371Z,5.27
2018-07-02T04:42:23.126Z,5.27
2018-07-02T04:43:25.177Z,5.34
2018-07-02T04:44:25.692Z,5.25
2018-07-02T04:45:25.291Z,5.31
2018-07-02T04:46:23.181Z,5.22
2018-07-02T04:47:28.696Z,5.25
2018-07-02T04:48:26.032Z,5.28
2018-07-02T04:49:25.121Z,5.27
2018-07-02T04:50:25.650Z,5.34
2018-07-02T04:51:25.875Z,5.35
2018-07-02T04:52:25.555Z,5.35
2018-07-02T04:53:23.119Z,5.33
2018-07-02T04:54:26.718Z,5.34
2018-07-02T04:55:25.164Z,5.34
2018-07-02T04:56:25.882Z,5.4
2018-07-02T04:57:23.432Z,5.38
2018-07-02T04:58:25.901Z,5.42
2018-07-02T04:59:23.159Z,5.31
2018-07-02T05:00:23.020Z,5.29
2018-07-02T05:01:23.017Z,5.34
2018-07-02T05:02:23.064Z,5.3
2018-07-02T05:03:23.020Z,5.35
2018-07-02T05:04:23.027Z,5.34
2018-07-02T05:05:23.044Z,5.37
2018-07-02T05:06:23.019Z,5.34
2018-07-02T05:07:23.087Z,5.4
2018-07-02T05:08:23.242Z,5.47
2018-07-02T05:09:23.028Z,5.52
2018-07-02T05:10:23.075Z,5.44
2018-07-02T05:11:23.019Z,5.44
2018-07-02T05:12:23.074Z,5.49
2018-07-02T05:13:22.977Z,5.5
2018-07-02T05:14:23.730Z,5.51
2018-07-02T05:15:22.998Z,5.43
2018-07-02T05:16:22.983Z,5.51
2018-07-02T05:17:22.962Z,5.51
2018-07-02T05:18:22.970Z,5.44
2018-07-02T05:19:23.177Z,5.47
2018-07-02T05:20:23.020Z,5.49
2018-07-02T05:21:23.030Z,5.56
2018-07-02T05:22:24.374Z,5.6
2018-07-02T05:23:22.973Z,5.55
2018-07-02T05:24:23.005Z,5.6
2018-07-02T05:25:23.027Z,5.5
2018-07-02T05:26:23.024Z,5.56
2018-07-02T05:27:23.019Z,5.62
2018-07-02T05:28:23.026Z,5.66
2018-07-02T05:29:23.038Z,5.67
2018-07-02T05:30:22.998Z,5.66
2018-07-02T05:31:23.219Z,5.64
2018-07-02T05:32:23.019Z,5.68
2018-07-02T05:33:23.003Z,5.61
2018-07-02T05:34:23.043Z,5.64
2018-07-02T05:35:23.202Z,5.66
2018-07-02T05:36:22.993Z,5.64
2018-07-02T05:37:23.045Z,5.65
2018-07-02T05:38:23.010Z,5.7
2018-07-02T05:39:23.046Z,5.73
2018-07-02T05:40:23.272Z,5.65
2018-07-02T05:41:23.034Z,5.66
2018-07-02T05:42:23.069Z,5.7
2018-07-02T05:43:23.136Z,5.76
2018-07-02T05:44:23.101Z,5.72
2018-07-02T05:45:23.011Z,5.7
2018-07-02T05:46:23.010Z,5.73
2018-07-02T05:47:22.996Z,5.75
2018-07-02T05:48:23.035Z,5.75
2018-07-02T05:49:23.100Z,5.81
2018-07-02T05:50:23.048Z,5.88
2018-07-02T05:51:23.041Z,5.82
2018-07-02T05:52:23.307Z,5.78
2018-07-02T05:53:23.010Z,5.86
2018-07-02T05:54:23.024Z,5.87
2018-07-02T05:55:23.023Z,5.91
2018-07-02T05:56:23.024Z,5.9
2018-07-02T05:57:23.041Z,5.93
2018-07-02T05:58:23.063Z,5.9
2018-07-02T05:59:23.009Z,5.94
2018-07-02T06:00:23.940Z,5.88
2018-07-02T06:01:23.028Z,5.9
2018-07-02T06:02:23.041Z,5.86
2018-07-02T06:03:23.108Z,5.89
2018-07-02T06:04:23.045Z,5.91
2018-07-02T06:05:23.042Z,5.81
2018-07-02T06:06:23.041Z,5.87
2018-07-02T06:07:23.109Z,5.84
2018-07-02T06:08:23.023Z,5.9
2018-07-02T06:09:23.122Z,5.92
2018-07-02T06:10:23.090Z,5.9
2018-07-02T06:11:23.084Z,5.95
2018-07-02T06:12:23.074Z,5.93
2018-07-02T06:13:23.225Z,6.03
2018-07-02T06:14:23.064Z,6
2018-07-02T06:15:23.011Z,6.02
2018-07-02T06:16:24.450Z,6
2018-07-02T06:17:23.025Z,5.97
2018-07-02T06:18:23.098Z,6.06
2018-07-02T06:19:23.061Z,6.05
2018-07-02T06:20:23.094Z,6.06
2018-07-02T06:21:23.067Z,6.06
2018-07-02T06:22:23.278Z,6.07
2018-07-02T06:23:23.350Z,6.01
2018-07-02T06:24:23.046Z,6.05
2018-07-02T06:25:23.137Z,6.16
2018-07-02T06:26:23.058Z,6.13
2018-07-02T06:27:23.132Z,6.16
2018-07-02T06:28:23.066Z,6.1
2018-07-02T06:29:23.264Z,6.03
2018-07-02T06:30:23.402Z,6.04
2018-07-02T06:31:23.064Z,6.13
2018-07-02T06:32:23.602Z,6.07
2018-07-02T06:33:23.048Z,6.16
2018-07-02T06:34:23.122Z,6.1
2018-07-02T06:35:23.071Z,6.08
2018-07-02T06:36:23.062Z,6.15
2018-07-02T06:37:23.080Z,6.16
2018-07-02T06:38:23.074Z,6.1
2018-07-02T06:39:23.136Z,6.1
2018-07-02T06:40:23.071Z,6.15
2018-07-02T06:41:23.172Z,6.2
2018-07-02T06:42:23.071Z,6.18
2018-07-02T06:43:23.084Z,6.21
2018-07-02T06:44:23.051Z,6.09
2018-07-02T06:45:23.097Z,6.18
2018-07-02T06:46:23.071Z,6.12
2018-07-02T06:47:23.312Z,6.07
2018-07-02T06:48:23.356Z,6.19
2018-07-02T06:49:23.099Z,6.17
2018-07-02T06:50:23.251Z,6.24
2018-07-02T06:51:23.132Z,6.23
2018-07-02T06:52:23.120Z,6.39
2018-07-02T06:53:23.125Z,6.4
2018-07-02T06:54:23.141Z,6.56
2018-07-02T06:55:23.216Z,6.44
2018-07-02T06:56:23.134Z,6.39
2018-07-02T06:57:23.263Z,6.47
2018-07-02T06:58:23.124Z,6.48
2018-07-02T06:59:23.121Z,6.61
2018-07-02T07:00:23.070Z,6.55
2018-07-02T07:01:23.173Z,6.65
2018-07-02T07:02:23.140Z,6.57
2018-07-02T07:03:23.143Z,6.57
2018-07-02T07:04:23.120Z,6.52
2018-07-02T07:05:23.103Z,6.49
2018-07-02T07:06:23.177Z,6.65
2018-07-02T07:07:23.146Z,6.51
2018-07-02T07:08:23.088Z,6.59
2018-07-02T07:09:23.162Z,6.52
2018-07-02T07:10:23.065Z,6.53
2018-07-02T07:11:23.105Z,6.45
2018-07-02T07:12:23.115Z,6.51
2018-07-02T07:13:23.113Z,6.6
2018-07-02T07:14:23.100Z,6.57
2018-07-02T07:15:23.117Z,6.45
2018-07-02T07:16:23.127Z,6.46
2018-07-02T07:17:23.134Z,6.54
2018-07-02T07:18:23.154Z,6.48
2018-07-02T07:19:23.165Z,6.53
2018-07-02T07:20:23.106Z,6.63
2018-07-02T07:21:23.115Z,6.76
2018-07-02T07:22:23.116Z,6.57
2018-07-02T07:23:23.181Z,6.66
2018-07-02T07:24:23.285Z,6.78
2018-07-02T07:25:23.293Z,6.8
2018-07-02T07:26:23.147Z,6.75
2018-07-02T07:27:23.114Z,6.74
2018-07-02T07:28:23.145Z,6.66
2018-07-02T07:29:23.138Z,6.76
2018-07-02T07:30:23.137Z,6.69
2018-07-02T07:31:23.152Z,6.64
2018-07-02T07:32:23.136Z,6.63
2018-07-02T07:33:23.141Z,6.75
2018-07-02T07:34:23.156Z,6.8
2018-07-02T07:35:23.202Z,6.91
2018-07-02T07:36:23.150Z,6.83
2018-07-02T07:37:23.348Z,6.84
2018-07-02T07:38:23.123Z,6.84
2018-07-02T07:39:23.127Z,6.96
2018-07-02T07:40:23.174Z,7
2018-07-02T07:41:23.171Z,6.87
2018-07-02T07:42:23.114Z,6.93
2018-07-02T07:43:23.125Z,6.85
2018-07-02T07:44:23.180Z,6.95
2018-07-02T07:45:23.131Z,7.11
2018-07-02T07:46:23.121Z,6.97
2018-07-02T07:47:23.251Z,6.96
2018-07-02T07:48:23.130Z,6.91
2018-07-02T07:49:23.253Z,7.05
2018-07-02T07:50:23.191Z,7
2018-07-02T07:51:23.151Z,7.09
2018-07-02T07:52:23.132Z,7.22
2018-07-02T07:53:23.198Z,7.25
2018-07-02T07:54:23.148Z,7.31
2018-07-02T07:55:23.289Z,7.18
2018-07-02T07:56:23.159Z,7.13
2018-07-02T07:57:23.186Z,7.05
2018-07-02T07:58:23.141Z,7.13
2018-07-02T07:59:23.451Z,7.28
2018-07-02T08:00:23.148Z,7.23
2018-07-02T08:01:23.259Z,7.34
2018-07-02T08:02:23.172Z,7.23
2018-07-02T08:03:23.151Z,7.27
2018-07-02T08:04:23.146Z,7.38
2018-07-02T08:05:23.186Z,7.33
2018-07-02T08:06:23.171Z,7.34
2018-07-02T08:07:23.157Z,7.13
2018-07-02T08:08:23.165Z,7.16
2018-07-02T08:09:23.169Z,7.32
2018-07-02T08:10:23.424Z,7.13
2018-07-02T08:11:23.220Z,7.07
2018-07-02T08:12:23.451Z,7.19
2018-07-02T08:13:23.253Z,7.18
2018-07-02T08:14:23.215Z,7.33
2018-07-02T08:15:23.388Z,7.3
2018-07-02T08:16:23.430Z,7.27
2018-07-02T08:17:23.202Z,7.32
2018-07-02T08:18:23.166Z,7.42
2018-07-02T08:19:23.275Z,7.4
2018-07-02T08:20:23.178Z,7.41
2018-07-02T08:21:23.190Z,7.43
2018-07-02T08:22:23.236Z,7.33
2018-07-02T08:23:23.281Z,7.39
2018-07-02T08:24:23.254Z,7.44
2018-07-02T08:25:23.290Z,7.31
2018-07-02T08:26:23.222Z,7.57
2018-07-02T08:27:23.501Z,7.46
2018-07-02T08:28:23.193Z,7.46
2018-07-02T08:29:23.199Z,7.51
2018-07-02T08:30:23.359Z,7.36
2018-07-02T08:31:23.245Z,7.35
2018-07-02T08:32:23.180Z,7.35
2018-07-02T08:33:23.201Z,7.59
2018-07-02T08:34:23.349Z,7.48
2018-07-02T08:35:23.216Z,7.56
2018-07-02T08:36:23.467Z,7.48
2018-07-02T08:37:23.230Z,7.5
2018-07-02T08:38:23.208Z,7.47
2018-07-02T08:39:23.179Z,7.47
2018-07-02T08:40:23.231Z,7.5
2018-07-02T08:41:23.463Z,7.15
2018-07-02T08:42:23.223Z,7.42
2018-07-02T08:43:23.209Z,7.49
2018-07-02T08:44:23.202Z,7.39
2018-07-02T08:45:23.189Z,7.66
2018-07-02T08:46:23.202Z,7.38
2018-07-02T08:47:23.225Z,7.46
2018-07-02T08:48:23.221Z,7.55
2018-07-02T08:49:23.213Z,7.61
2018-07-02T08:50:23.237Z,7.53
2018-07-02T08:51:23.376Z,7.48
2018-07-02T08:52:23.295Z,7.43
2018-07-02T08:53:23.223Z,7.36
2018-07-02T08:54:23.260Z,7.49
2018-07-02T08:55:23.225Z,7.4
2018-07-02T08:56:23.505Z,7.44
2018-07-02T08:57:23.236Z,7.38
2018-07-02T08:58:23.647Z,7.36
2018-07-02T08:59:23.246Z,7.65
2018-07-02T09:00:23.231Z,7.69
2018-07-02T09:01:23.357Z,7.69
2018-07-02T09:02:23.227Z,7.57
2018-07-02T09:03:23.449Z,7.63
2018-07-02T09:04:23.320Z,7.56
2018-07-02T09:05:23.369Z,7.52
2018-07-02T09:06:23.400Z,7.55
2018-07-02T09:07:23.624Z,7.65
2018-07-02T09:08:23.252Z,7.7
2018-07-02T09:09:23.287Z,7.63
2018-07-02T09:10:23.217Z,7.54
2018-07-02T09:11:23.266Z,7.43
2018-07-02T09:12:23.226Z,7.4
2018-07-02T09:13:23.282Z,7.51
2018-07-02T09:14:23.273Z,7.44
2018-07-02T09:15:23.273Z,7.49
2018-07-02T09:16:23.225Z,7.57
2018-07-02T09:17:23.439Z,7.49
2018-07-02T09:18:23.254Z,7.59
2018-07-02T09:19:23.243Z,7.55
2018-07-02T09:20:23.226Z,7.62
2018-07-02T09:21:23.317Z,7.59
2018-07-02T09:22:23.250Z,7.26
2018-07-02T09:23:23.395Z,7.29
2018-07-02T09:24:23.303Z,7.37
2018-07-02T09:25:23.277Z,7.68
2018-07-02T09:26:23.255Z,7.42
2018-07-02T09:27:23.230Z,7.18
2018-07-02T09:28:23.283Z,7.36
2018-07-02T09:29:23.439Z,7.39
2018-07-02T09:30:23.447Z,7.46
2018-07-02T09:31:23.845Z,7.32
2018-07-02T09:32:23.752Z,7.44
2018-07-02T09:33:23.366Z,7.47
2018-07-02T09:34:23.239Z,7.41
2018-07-02T09:35:23.383Z,7.51
2018-07-02T09:36:23.319Z,7.41
2018-07-02T09:37:23.275Z,7.48
2018-07-02T09:38:23.295Z,7.43
2018-07-02T09:39:23.848Z,7.26
2018-07-02T09:40:23.274Z,7.35
2018-07-02T09:41:23.381Z,7.38
2018-07-02T09:42:23.293Z,7.3
2018-07-02T09:43:23.294Z,7.25
2018-07-02T09:44:23.295Z,7.38
2018-07-02T09:45:23.265Z,7.52
2018-07-02T09:46:23.292Z,7.36
2018-07-02T09:47:23.299Z,7.47
2018-07-02T09:48:23.406Z,7.24
2018-07-02T09:49:23.621Z,7.28
2018-07-02T09:50:23.295Z,7.12
2018-07-02T09:51:23.281Z,7.32
2018-07-02T09:52:23.284Z,7.01
2018-07-02T09:53:23.312Z,7.11
2018-07-02T09:54:23.270Z,6.99
2018-07-02T09:55:23.252Z,7.04
2018-07-02T09:56:23.315Z,6.76
2018-07-02T09:57:23.343Z,6.7
2018-07-02T09:58:23.299Z,6.79
2018-07-02T09:59:23.272Z,7.02
2018-07-02T10:00:23.311Z,7.11
2018-07-02T10:01:23.281Z,7.09
2018-07-02T10:02:23.289Z,6.89
2018-07-02T10:03:23.306Z,7.05
2018-07-02T10:04:23.638Z,7.09
2018-07-02T10:05:23.489Z,6.8
2018-07-02T10:06:23.725Z,6.97
2018-07-02T10:07:23.310Z,6.98
2018-07-02T10:08:23.338Z,6.84
2018-07-02T10:09:23.328Z,6.67
2018-07-02T10:10:23.374Z,6.56
2018-07-02T10:11:23.322Z,6.79
2018-07-02T10:12:23.329Z,6.78
2018-07-02T10:13:23.328Z,6.88
2018-07-02T10:14:23.643Z,7
2018-07-02T10:15:23.480Z,6.98
2018-07-02T10:16:23.425Z,6.75
2018-07-02T10:17:23.348Z,6.89
2018-07-02T10:18:23.337Z,6.93
2018-07-02T10:19:23.519Z,7.07
2018-07-02T10:20:23.651Z,7.21
2018-07-02T10:21:23.383Z,7.18
2018-07-02T10:22:23.574Z,7.01
2018-07-02T10:23:23.479Z,7.13
2018-07-02T10:24:23.337Z,7.17
2018-07-02T10:25:23.355Z,7.21
2018-07-02T10:26:23.316Z,7
2018-07-02T10:27:23.391Z,7.13
2018-07-02T10:28:23.443Z,7.14
2018-07-02T10:29:23.590Z,7.23
2018-07-02T10:30:23.308Z,7.14
2018-07-02T10:31:24.757Z,7.03
2018-07-02T10:32:23.374Z,7.05
2018-07-02T10:33:23.344Z,7.15
2018-07-02T10:34:23.452Z,7.16
2018-07-02T10:35:23.343Z,7.09
2018-07-02T10:36:23.350Z,6.72
2018-07-02T10:37:23.323Z,6.36
2018-07-02T10:38:23.394Z,6.4
2018-07-02T10:39:23.511Z,6.47
2018-07-02T10:40:23.384Z,6.21
2018-07-02T10:41:23.351Z,6.23
2018-07-02T10:42:23.496Z,6.28
2018-07-02T10:43:23.377Z,6.55
2018-07-02T10:44:23.361Z,6.43
2018-07-02T10:45:23.449Z,6.51
2018-07-02T10:46:23.401Z,6.67
2018-07-02T10:47:23.336Z,6.65
2018-07-02T10:48:23.502Z,6.91
2018-07-02T10:49:23.376Z,7.02
2018-07-02T10:50:23.622Z,6.81
2018-07-02T10:51:23.326Z,6.78
2018-07-02T10:52:23.372Z,6.95
2018-07-02T10:53:23.382Z,7.02
2018-07-02T10:54:23.492Z,6.99
2018-07-02T10:55:23.448Z,6.73
2018-07-02T10:56:23.341Z,6.92
2018-07-02T10:57:23.354Z,6.87
2018-07-02T10:58:23.411Z,6.73
2018-07-02T10:59:23.346Z,6.86
2018-07-02T11:00:23.358Z,6.93
2018-07-02T11:01:23.725Z,6.55
2018-07-02T11:02:23.392Z,6.24
2018-07-02T11:03:23.475Z,6.48
2018-07-02T11:04:23.373Z,6.77
2018-07-02T11:05:23.349Z,6.51
2018-07-02T11:06:23.356Z,6.33
2018-07-02T11:07:23.333Z,6.48
2018-07-02T11:08:23.357Z,6.71
2018-07-02T11:09:23.381Z,6.8
2018-07-02T11:10:23.353Z,6.63
2018-07-02T11:11:23.379Z,6.59
2018-07-02T11:12:23.366Z,6.67
2018-07-02T11:13:23.391Z,6.81
2018-07-02T11:14:23.360Z,6.68
2018-07-02T11:15:23.370Z,6.58
2018-07-02T11:16:23.439Z,6.68
2018-07-02T11:17:23.374Z,6.4
2018-07-02T11:18:23.398Z,6.5
2018-07-02T11:19:23.384Z,6.51
2018-07-02T11:20:23.423Z,6.82
2018-07-02T11:21:23.402Z,6.43
2018-07-02T11:22:23.371Z,6.83
2018-07-02T11:23:23.518Z,6.67
2018-07-02T11:24:23.435Z,6.8
2018-07-02T11:25:23.441Z,6.58
2018-07-02T11:26:23.426Z,6.36
2018-07-02T11:27:23.444Z,6.54
2018-07-02T11:28:23.391Z,6.66
2018-07-02T11:29:23.377Z,6.41
2018-07-02T11:30:23.435Z,6.63
2018-07-02T11:31:23.432Z,6.6
2018-07-02T11:32:23.401Z,6.7
2018-07-02T11:33:23.522Z,6.45
2018-07-02T11:34:23.410Z,6.39
2018-07-02T11:35:23.418Z,6.57
2018-07-02T11:36:23.387Z,6.65
2018-07-02T11:37:23.748Z,6.78
2018-07-02T11:38:23.425Z,7.15
2018-07-02T11:39:23.430Z,6.64
2018-07-02T11:40:23.457Z,6.7
2018-07-02T11:41:23.435Z,6.41
2018-07-02T11:42:23.520Z,6.14
2018-07-02T11:43:23.395Z,6.46
2018-07-02T11:44:23.431Z,6.58
2018-07-02T11:45:23.461Z,6.72
2018-07-02T11:46:23.496Z,6.84
2018-07-02T11:47:23.608Z,7.18
2018-07-02T11:48:23.411Z,6.8
2018-07-02T11:49:23.471Z,7.02
2018-07-02T11:50:23.430Z,7.14
2018-07-02T11:51:23.471Z,7.02
2018-07-02T11:52:23.486Z,7.18
2018-07-02T11:53:23.449Z,6.95
2018-07-02T11:54:23.460Z,7.03
2018-07-02T11:55:23.474Z,6.64
2018-07-02T11:56:23.465Z,6.93
2018-07-02T11:57:23.822Z,6.92
2018-07-02T11:58:23.537Z,6.87
2018-07-02T11:59:23.570Z,6.82
2018-07-02T12:00:23.454Z,6.93
2018-07-02T12:01:23.510Z,7.04
2018-07-02T12:02:23.591Z,6.7
2018-07-02T12:03:23.470Z,6.73
2018-07-02T12:04:23.472Z,6.85
2018-07-02T12:05:23.510Z,6.6
2018-07-02T12:06:23.543Z,6.72
2018-07-02T12:07:23.502Z,6.82
2018-07-02T12:08:23.575Z,6.77
2018-07-02T12:09:23.611Z,6.92
2018-07-02T12:10:23.662Z,6.52
2018-07-02T12:11:23.452Z,6.61
2018-07-02T12:12:23.543Z,6.75
2018-07-02T12:13:23.643Z,6.63
2018-07-02T12:14:23.570Z,6.36
2018-07-02T12:15:24.018Z,6.57
2018-07-02T12:16:23.513Z,6.88
2018-07-02T12:17:23.515Z,6.8
2018-07-02T12:18:24.198Z,6.81
2018-07-02T12:19:23.501Z,6.27
2018-07-02T12:20:23.514Z,6.26
2018-07-02T12:21:23.493Z,6.72
2018-07-02T12:22:23.498Z,6.65
2018-07-02T12:23:23.567Z,6.67
2018-07-02T12:24:23.509Z,6.97
2018-07-02T12:25:23.512Z,6.51
2018-07-02T12:26:23.521Z,6.73
2018-07-02T12:27:24.502Z,6.61
2018-07-02T12:28:24.088Z,6.75
2018-07-02T12:29:24.965Z,6.78
2018-07-02T12:30:26.524Z,6.75
2018-07-02T12:31:23.566Z,6.74
2018-07-02T12:32:23.496Z,6.58
2018-07-02T12:33:25.282Z,6.4
2018-07-02T12:34:23.556Z,6.72
2018-07-02T12:35:24.296Z,6.57
2018-07-02T12:36:23.556Z,6.43
2018-07-02T12:37:23.705Z,6.3
2018-07-02T12:38:23.499Z,6.03
2018-07-02T12:39:23.466Z,6.38
2018-07-02T12:40:24.376Z,6.23
2018-07-02T12:41:23.579Z,6.01
2018-07-02T12:42:23.556Z,6.09
2018-07-02T12:43:24.177Z,6.18
2018-07-02T12:44:23.520Z,6.57
2018-07-02T12:45:23.505Z,6.59
2018-07-02T12:46:23.548Z,6.45
2018-07-02T12:47:23.528Z,6.75
2018-07-02T12:48:23.495Z,6.58
2018-07-02T12:49:24.030Z,6.82
2018-07-02T12:50:23.541Z,6.83
2018-07-02T12:51:23.521Z,6.54
2018-07-02T12:52:23.470Z,6.38
2018-07-02T12:53:23.479Z,6.66
2018-07-02T12:54:24.468Z,6.65
2018-07-02T12:55:23.545Z,6.76
2018-07-02T12:56:23.579Z,6.7
2018-07-02T12:57:23.524Z,6.88
2018-07-02T12:58:23.495Z,6.82
2018-07-02T12:59:23.549Z,6.85
2018-07-02T13:00:23.552Z,6.97
2018-07-02T13:01:23.587Z,6.83
2018-07-02T13:02:23.639Z,6.71
2018-07-02T13:03:23.548Z,6.85
2018-07-02T13:04:23.571Z,6.67
2018-07-02T13:05:23.606Z,6.72
2018-07-02T13:06:23.593Z,6.85
2018-07-02T13:07:23.622Z,6.57
2018-07-02T13:08:23.569Z,6.59
2018-07-02T13:09:23.506Z,6.44
2018-07-02T13:10:23.634Z,6.39
2018-07-02T13:11:23.524Z,6.56
2018-07-02T13:12:23.634Z,6.23
2018-07-02T13:13:23.530Z,6.22
2018-07-02T13:14:23.540Z,6.51
2018-07-02T13:15:23.605Z,6.56
2018-07-02T13:16:23.661Z,6.55
2018-07-02T13:17:29.765Z,6.59
2018-07-02T13:18:23.878Z,6.35
2018-07-02T13:19:23.574Z,6.3
2018-07-02T13:20:23.580Z,6.61
2018-07-02T13:21:23.570Z,6.54